Time;durP1;ratioP1;P1;durP2;ratioP2;P2;SDS_P1;SDS_P2;PMS_P1;PMS_P2;Temp;Humidity;BMP_temperature;BMP_pressure;BME280_temperature;BME280_humidity;BME280_pressure;Samples;Min_cycle;Max_cycle;Signal;HPM_P1;HPM_P2
2021/11/22 00:00:21;;;;;;;7.00;3.92;;;;;;;13.84;32.65;97493.00;5034050;28;20483;-77
2021/11/22 00:02:48;;;;;;;6.97;4.40;;;;;;;13.46;32.79;97480.03;5033812;28;20044;-74
2021/11/22 00:05:14;;;;;;;7.53;4.60;;;;;;;13.32;33.04;97490.09;5050604;28;20127;-76
2021/11/22 00:07:40;;;;;;;11.35;6.20;;;;;;;13.07;33.10;97464.59;5033255;28;20048;-76
2021/11/22 00:10:06;;;;;;;11.80;6.43;;;;;;;13.33;32.83;97497.03;5017085;28;20698;-77
2021/11/22 00:12:35;;;;;;;11.52;7.10;;;;;;;13.17;33.24;97492.38;5016965;28;20060;-77
2021/11/22 00:15:03;;;;;;;9.65;6.65;;;;;;;13.50;32.98;97487.34;5020697;28;20088;-76
2021/11/22 00:17:30;;;;;;;11.68;7.55;;;;;;;13.42;32.84;97506.34;5054225;28;20230;-77
2021/11/22 00:19:57;;;;;;;14.38;8.43;;;;;;;13.17;32.94;97497.69;5053282;28;20044;-77
2021/11/22 00:22:24;;;;;;;17.27;10.30;;;;;;;13.20;33.12;97486.56;5037712;28;20492;-78
2021/11/22 00:24:51;;;;;;;17.63;10.95;;;;;;;13.18;32.93;97499.31;5021358;28;20142;-78
2021/11/22 00:27:17;;;;;;;21.05;12.13;;;;;;;13.24;32.93;97525.06;5054195;28;20032;-79
2021/11/22 00:29:43;;;;;;;19.83;10.35;;;;;;;13.16;32.69;97517.38;5020805;28;20097;-79
2021/11/22 00:32:35;;;;;;;17.92;10.70;;;;;;;13.37;32.71;97534.72;5056493;28;20048;-78
2021/11/22 00:35:19;;;;;;;10.38;6.47;;;;;;;13.16;32.58;97535.22;5053137;28;20040;-75
2021/11/22 00:37:51;;;;;;;13.45;6.88;;;;;;;13.17;32.38;97535.00;5040246;28;20146;-77
2021/11/22 00:40:17;;;;;;;11.45;7.85;;;;;;;13.26;32.62;97533.66;5041652;28;20094;-76
2021/11/22 00:42:44;;;;;;;11.82;5.40;;;;;;;13.40;32.35;97540.44;5023777;28;20080;-77
2021/11/22 00:45:10;;;;;;;5.03;3.87;;;;;;;13.15;32.19;97541.56;5023433;28;20135;-77
2021/11/22 00:47:37;;;;;;;4.60;2.92;;;;;;;12.89;32.00;97523.22;5056260;28;20108;-77
2021/11/22 00:50:06;;;;;;;3.33;2.60;;;;;;;13.14;31.99;97542.63;5040256;28;20037;-77
2021/11/22 00:52:32;;;;;;;5.67;2.53;;;;;;;12.97;32.12;97522.94;5040317;28;20543;-77
2021/11/22 00:54:58;;;;;;;4.73;2.63;;;;;;;13.06;32.11;97548.25;5039625;28;20080;-77
2021/11/22 00:57:24;;;;;;;3.83;2.22;;;;;;;12.98;31.78;97533.38;5040017;28;20067;-77
2021/11/22 00:59:50;;;;;;;3.20;2.33;;;;;;;13.10;31.68;97544.13;5039859;28;20049;-75
2021/11/22 01:02:16;;;;;;;2.88;2.20;;;;;;;13.13;31.48;97554.34;5023324;28;20516;-77
2021/11/22 01:04:42;;;;;;;3.78;2.80;;;;;;;13.11;31.42;97559.06;5039281;28;20087;-76
2021/11/22 01:07:08;;;;;;;4.72;2.40;;;;;;;13.12;31.33;97553.50;5056009;28;20079;-76
2021/11/22 01:09:34;;;;;;;3.00;2.70;;;;;;;13.25;31.29;97557.88;5039926;28;20040;-77
2021/11/22 01:12:00;;;;;;;5.10;4.00;;;;;;;13.23;31.12;97567.94;5057178;28;20472;-78
2021/11/22 01:14:26;;;;;;;7.43;4.50;;;;;;;13.04;31.40;97545.81;5007685;28;20518;-78
2021/11/22 01:16:52;;;;;;;7.10;5.22;;;;;;;13.13;31.56;97554.34;5020990;28;20056;-75
2021/11/22 01:19:18;;;;;;;8.95;5.22;;;;;;;13.11;31.04;97572.41;5004002;28;20041;-76
2021/11/22 01:21:46;;;;;;;9.48;5.47;;;;;;;13.22;31.29;97574.31;5020215;28;20106;-76
2021/11/22 01:24:12;;;;;;;8.05;4.35;;;;;;;13.25;31.01;97579.97;5036105;28;20057;-77
2021/11/22 01:26:40;;;;;;;8.15;4.90;;;;;;;12.98;31.44;97568.00;5020767;28;20389;-77
2021/11/22 01:29:06;;;;;;;9.63;5.10;;;;;;;13.08;31.38;97583.50;5020278;28;20040;-76
2021/11/22 01:31:32;;;;;;;9.77;5.03;;;;;;;13.23;31.38;97570.59;5003183;28;20048;-76
2021/11/22 01:33:58;;;;;;;6.80;3.78;;;;;;;12.85;31.31;97588.66;5036461;28;20041;-77
2021/11/22 01:36:25;;;;;;;7.55;3.83;;;;;;;12.80;31.51;97580.50;5036682;28;20160;-76
2021/11/22 01:38:51;;;;;;;5.63;3.27;;;;;;;12.76;31.38;97598.78;5036008;28;20583;-76
2021/11/22 01:41:17;;;;;;;6.27;3.33;;;;;;;12.81;31.49;97592.78;5019474;28;20052;-78
2021/11/22 01:43:43;;;;;;;4.82;3.00;;;;;;;12.83;31.64;97601.38;5019908;28;20075;-76
2021/11/22 01:46:19;;;;;;;4.90;3.23;;;;;;;13.42;31.60;97596.19;5003596;28;20065;-77
2021/11/22 01:48:46;;;;;;;3.73;2.60;;;;;;;13.06;31.88;97604.22;5035408;28;20167;-77
2021/11/22 01:51:12;;;;;;;4.22;2.90;;;;;;;12.98;31.49;97601.81;5035933;28;21002;-76
2021/11/22 01:53:38;;;;;;;4.10;2.67;;;;;;;12.91;31.34;97604.56;5052228;28;20048;-76
2021/11/22 01:56:05;;;;;;;3.40;2.30;;;;;;;12.93;31.40;97583.03;5019120;28;20037;-76
2021/11/22 01:58:30;;;;;;;3.33;2.47;;;;;;;12.74;31.49;97603.53;5019527;28;20394;-75
2021/11/22 02:00:57;;;;;;;3.42;2.40;;;;;;;13.04;31.40;97617.75;5003088;28;20052;-76
2021/11/22 02:03:23;;;;;;;3.33;2.53;;;;;;;12.88;32.19;97618.34;5036556;28;20365;-77
2021/11/22 02:05:52;;;;;;;3.77;2.57;;;;;;;12.77;31.86;97613.75;5036300;28;20041;-75
2021/11/22 02:08:19;;;;;;;4.43;2.63;;;;;;;12.72;32.26;97615.41;5018917;28;20135;-75
2021/11/22 02:10:46;;;;;;;2.60;2.40;;;;;;;12.69;32.23;97608.69;5018643;28;20045;-75
2021/11/22 02:13:12;;;;;;;6.17;2.57;;;;;;;12.48;32.44;97608.28;5051450;28;20131;-75
2021/11/22 02:15:38;;;;;;;2.73;2.43;;;;;;;12.22;32.22;97603.19;5034631;28;20459;-75
2021/11/22 02:18:04;;;;;;;3.90;2.80;;;;;;;12.34;32.81;97618.25;5034563;28;20045;-75
2021/11/22 02:20:31;;;;;;;2.20;2.00;;;;;;;12.32;32.94;97620.31;5052160;28;20060;-75
2021/11/22 02:23:00;;;;;;;2.93;2.57;;;;;;;12.56;32.92;97629.31;5052439;28;20136;-79
2021/11/22 02:25:28;;;;;;;2.93;2.30;;;;;;;12.37;32.90;97624.97;5052312;28;20083;-77
2021/11/22 02:27:54;;;;;;;3.23;2.10;;;;;;;12.07;32.97;97614.16;5036167;28;20044;-76
2021/11/22 02:30:29;;;;;;;2.83;2.50;;;;;;;12.24;32.82;97633.09;5052522;28;20136;-78
2021/11/22 02:32:58;;;;;;;3.00;2.30;;;;;;;12.11;32.63;97617.19;5052874;28;20049;-75
2021/11/22 02:35:26;;;;;;;4.60;2.87;;;;;;;11.56;33.88;97637.38;5035197;28;20045;-80
2021/11/22 02:37:52;;;;;;;4.03;2.40;;;;;;;11.66;33.84;97645.72;5052770;28;20516;-81
2021/11/22 02:40:18;;;;;;;3.93;3.00;;;;;;;11.60;34.26;97644.72;5019571;28;20044;-80
2021/11/22 02:42:45;;;;;;;4.20;2.77;;;;;;;11.46;34.90;97624.53;5035073;28;20041;-79
2021/11/22 02:45:17;;;;;;;4.03;2.60;;;;;;;11.66;34.77;97616.50;5018508;28;20045;-80
2021/11/22 02:47:44;;;;;;;3.70;2.70;;;;;;;11.84;35.09;97665.25;5034017;28;20073;-71
2021/11/22 02:50:11;;;;;;;4.27;2.77;;;;;;;11.79;35.31;97661.63;5033518;28;20048;-73
2021/11/22 02:52:41;;;;;;;4.30;3.10;;;;;;;11.96;35.07;97676.06;5033640;28;20063;-72
2021/11/22 02:55:10;;;;;;;5.67;2.57;;;;;;;11.98;35.14;97650.03;5033532;28;20041;-72
2021/11/22 02:57:36;;;;;;;5.00;2.80;;;;;;;11.89;34.83;97672.59;5017247;28;20051;-73
2021/11/22 03:00:05;;;;;;;5.90;2.57;;;;;;;11.96;34.18;97660.09;5032263;28;20076;-72
2021/11/22 03:02:31;;;;;;;2.50;2.20;;;;;;;11.71;34.07;97670.69;5016828;28;20090;-72
2021/11/22 03:04:57;;;;;;;11.63;7.67;;;;;;;11.79;34.33;97673.06;5050198;28;20033;-71
2021/11/22 03:07:22;;;;;;;4.63;2.40;;;;;;;11.85;34.20;97674.88;5033678;28;20045;-73
2021/11/22 03:09:48;;;;;;;3.97;2.60;;;;;;;11.83;33.97;97692.06;5033217;28;20088;-74
2021/11/22 03:12:14;;;;;;;2.70;2.40;;;;;;;11.90;33.80;97691.00;5033165;28;20142;-72
2021/11/22 03:14:41;;;;;;;3.00;1.80;;;;;;;11.86;33.81;97673.03;5049753;28;20049;-74
2021/11/22 03:17:07;;;;;;;2.50;1.80;;;;;;;11.62;33.30;97692.38;5036136;28;20044;-73
2021/11/22 03:19:33;;;;;;;1.60;1.50;;;;;;;11.34;33.47;97689.19;5020043;28;20401;-73
2021/11/22 03:21:59;;;;;;;2.87;1.90;;;;;;;11.52;33.21;97694.66;5036371;28;20511;-72
2021/11/22 03:24:26;;;;;;;1.90;1.73;;;;;;;11.77;32.85;97706.22;5020775;28;20052;-73
2021/11/22 03:26:52;;;;;;;4.13;1.60;;;;;;;11.47;33.33;97697.94;5036331;28;20511;-74
2021/11/22 03:29:18;;;;;;;1.60;1.50;;;;;;;11.43;32.61;97706.53;5036096;28;20033;-73
2021/11/22 03:31:44;;;;;;;1.60;1.50;;;;;;;11.66;32.44;97704.22;5019581;28;20091;-73
2021/11/22 03:34:12;;;;;;;2.17;1.50;;;;;;;11.96;31.91;97692.00;5036128;28;20040;-72
2021/11/22 03:36:38;;;;;;;2.67;1.73;;;;;;;11.58;31.29;97686.66;5053167;28;20515;-73
2021/11/22 03:39:22;;;;;;;1.90;1.70;;;;;;;12.08;30.33;97677.00;5052066;28;20388;-72
2021/11/22 03:41:49;;;;;;;1.60;1.50;;;;;;;11.80;30.94;97725.25;5052169;28;20416;-73
2021/11/22 03:44:15;;;;;;;3.60;1.80;;;;;;;11.80;31.08;97719.09;5035869;28;20036;-73
2021/11/22 03:46:45;;;;;;;3.07;1.50;;;;;;;12.01;30.36;97712.66;5035588;28;20560;-73
2021/11/22 03:49:11;;;;;;;1.65;1.40;;;;;;;11.80;29.81;97724.41;5035748;28;20135;-73
2021/11/22 03:51:38;;;;;;;1.70;1.60;;;;;;;11.52;29.96;97682.19;5035880;28;20235;-72
2021/11/22 03:54:04;;;;;;;1.50;1.40;;;;;;;11.62;30.12;97717.13;5002795;28;20484;-72
2021/11/22 03:56:30;;;;;;;1.67;1.50;;;;;;;11.48;30.11;97715.53;5035727;28;20079;-71
2021/11/22 03:58:56;;;;;;;1.60;1.37;;;;;;;11.41;30.02;97722.69;5036195;28;20143;-73
2021/11/22 04:01:22;;;;;;;1.70;1.60;;;;;;;11.50;30.11;97726.75;5052136;28;20492;-71
2021/11/22 04:03:48;;;;;;;1.53;1.43;;;;;;;11.62;29.65;97734.91;5035673;28;20415;-73
2021/11/22 04:06:15;;;;;;;1.93;1.53;;;;;;;11.73;30.07;97739.59;5018910;28;20045;-73
2021/11/22 04:08:41;;;;;;;2.30;1.70;;;;;;;11.86;29.79;97750.16;5019245;28;20039;-73
2021/11/22 04:11:08;;;;;;;4.03;1.80;;;;;;;11.83;29.86;97755.91;5018788;28;20040;-73
2021/11/22 04:13:34;;;;;;;3.33;1.60;;;;;;;11.56;29.88;97757.00;5052188;28;20048;-73
2021/11/22 04:16:01;;;;;;;1.70;1.60;;;;;;;11.40;29.68;97739.69;5052291;28;20060;-76
2021/11/22 04:18:29;;;;;;;1.70;1.60;;;;;;;11.93;29.61;97769.59;5071045;28;20075;-76
2021/11/22 04:20:54;;;;;;;2.07;1.87;;;;;;;11.70;29.60;97766.63;5053024;28;20098;-77
2021/11/22 04:23:20;;;;;;;1.60;1.50;;;;;;;11.67;29.59;97774.97;5035995;28;20052;-77
2021/11/22 04:25:46;;;;;;;2.37;2.00;;;;;;;11.77;29.72;97778.03;5035635;28;20044;-74
2021/11/22 04:28:12;;;;;;;1.97;1.77;;;;;;;11.81;30.03;97788.03;5070717;28;20040;-73
2021/11/22 04:30:38;;;;;;;2.80;2.00;;;;;;;12.13;29.89;97802.19;5069329;28;20040;-72
2021/11/22 04:33:04;;;;;;;2.27;1.97;;;;;;;11.93;29.65;97796.97;5088025;28;20353;-73
2021/11/22 04:35:30;;;;;;;3.73;2.50;;;;;;;11.98;30.41;97806.19;5054429;28;20047;-73
2021/11/22 04:37:57;;;;;;;3.90;2.20;;;;;;;12.22;30.21;97813.44;5088724;28;20032;-72
2021/11/22 04:40:23;;;;;;;4.13;2.43;;;;;;;12.01;30.11;97811.88;5088900;28;20044;-70
2021/11/22 04:42:49;;;;;;;3.60;2.20;;;;;;;12.05;30.18;97814.94;5070916;28;20055;-73
2021/11/22 04:45:17;;;;;;;2.40;2.20;;;;;;;12.24;29.91;97798.09;5070875;28;20043;-72
2021/11/22 04:47:45;;;;;;;3.80;2.40;;;;;;;12.32;30.04;97822.59;5088809;28;20088;-73
2021/11/22 04:50:11;;;;;;;3.90;2.20;;;;;;;12.14;30.23;97811.84;5054344;28;20052;-68
2021/11/22 04:52:37;;;;;;;3.20;2.47;;;;;;;12.14;30.46;97834.97;5056767;28;20078;-72
2021/11/22 04:55:04;;;;;;;2.63;2.17;;;;;;;12.44;30.23;97842.19;5054104;28;20068;-70
2021/11/22 04:57:30;;;;;;;2.90;2.30;;;;;;;12.32;30.21;97841.22;5089084;28;20052;-71
2021/11/22 04:59:55;;;;;;;2.63;2.10;;;;;;;12.20;29.90;97848.25;5088270;28;20040;-71
2021/11/22 05:02:21;;;;;;;3.53;1.93;;;;;;;12.12;30.04;97848.47;5088781;28;20044;-70
2021/11/22 05:04:47;;;;;;;3.43;2.10;;;;;;;11.93;30.57;97851.22;5036366;28;20040;-72
2021/11/22 05:07:16;;;;;;;3.40;2.60;;;;;;;12.28;30.34;97858.66;5068852;28;20127;-72
2021/11/22 05:09:46;;;;;;;2.63;2.00;;;;;;;12.03;30.41;97851.56;5067827;28;20490;-70
2021/11/22 05:12:14;;;;;;;3.58;2.33;;;;;;;12.43;30.48;97866.34;5068361;28;20117;-72
2021/11/22 05:14:44;;;;;;;2.78;2.40;;;;;;;12.44;30.13;97874.13;5086672;28;20071;-72
2021/11/22 05:17:10;;;;;;;2.60;2.20;;;;;;;12.35;30.26;97867.41;5051705;28;20147;-72
2021/11/22 05:19:35;;;;;;;3.30;2.20;;;;;;;12.15;29.83;97889.84;5068630;28;20070;-71
2021/11/22 05:22:02;;;;;;;2.73;2.20;;;;;;;12.37;29.94;97864.53;5088627;28;20052;-72
2021/11/22 05:24:29;;;;;;;2.80;2.27;;;;;;;12.37;29.95;97902.63;5091626;28;20077;-71
2021/11/22 05:26:55;;;;;;;2.20;2.00;;;;;;;12.35;29.99;97904.69;5073734;28;20036;-72
2021/11/22 05:29:21;;;;;;;1.97;1.80;;;;;;;12.26;29.11;97921.91;5091927;28;20058;-71
2021/11/22 05:31:49;;;;;;;3.07;1.90;;;;;;;12.52;29.06;97897.84;5075647;28;20047;-72
2021/11/22 05:34:17;;;;;;;1.83;1.70;;;;;;;12.45;28.64;97929.03;5074014;28;20467;-73
2021/11/22 05:36:44;;;;;;;2.40;1.80;;;;;;;12.25;29.02;97893.69;5073621;28;20043;-71
2021/11/22 05:39:10;;;;;;;2.30;1.80;;;;;;;12.22;28.68;97933.19;5073985;28;20048;-71
2021/11/22 05:41:36;;;;;;;1.70;1.60;;;;;;;12.40;28.52;97928.84;5073168;28;20063;-71
2021/11/22 05:44:02;;;;;;;1.70;1.60;;;;;;;12.27;28.03;97936.06;5057270;28;20075;-70
2021/11/22 05:46:27;;;;;;;1.57;1.47;;;;;;;12.20;28.10;97935.25;5092073;28;20480;-69
2021/11/22 05:48:53;;;;;;;4.40;1.40;;;;;;;12.17;27.76;97923.19;5073477;28;20485;-71
2021/11/22 05:51:20;;;;;;;1.70;1.50;;;;;;;12.36;27.33;97945.44;5091658;28;20130;-73
2021/11/22 05:53:48;;;;;;;1.97;1.60;;;;;;;12.54;27.32;97961.53;5073317;28;20135;-73
2021/11/22 05:56:16;;;;;;;2.03;1.47;;;;;;;12.44;27.70;97963.84;5074097;28;20048;-70
2021/11/22 05:58:41;;;;;;;1.63;1.40;;;;;;;12.40;28.03;97966.09;5057146;28;20043;-72
2021/11/22 06:01:07;;;;;;;1.70;1.60;;;;;;;12.41;27.66;97965.06;5073932;28;20097;-72
2021/11/22 06:03:33;;;;;;;4.70;1.43;;;;;;;12.51;27.64;97986.75;5056900;28;20044;-71
2021/11/22 06:05:59;;;;;;;1.43;1.33;;;;;;;12.35;27.73;97987.19;5091943;28;20059;-73
2021/11/22 06:08:25;;;;;;;2.03;1.40;;;;;;;12.39;27.29;97990.28;5073578;28;20127;-73
2021/11/22 06:10:52;;;;;;;5.03;1.50;;;;;;;12.65;27.08;97996.34;5091438;28;20594;-72
2021/11/22 06:13:18;;;;;;;1.60;1.50;;;;;;;12.38;27.14;97986.78;5073192;28;20093;-71
2021/11/22 06:15:45;;;;;;;1.77;1.50;;;;;;;12.62;27.06;97998.59;5073395;28;20079;-72
2021/11/22 06:18:10;;;;;;;2.23;1.40;;;;;;;12.43;27.32;97997.63;5091442;28;20063;-73
2021/11/22 06:20:37;;;;;;;1.33;1.15;;;;;;;12.59;27.00;98010.47;5072960;28;20097;-72
2021/11/22 06:23:03;;;;;;;1.35;1.25;;;;;;;12.29;27.08;98009.34;5091056;28;20047;-70
2021/11/22 06:25:29;;;;;;;1.20;1.20;;;;;;;12.41;26.70;98017.50;5056872;28;20071;-72
2021/11/22 06:27:55;;;;;;;1.13;1.10;;;;;;;12.38;26.67;98034.69;5056645;28;20044;-72
2021/11/22 06:30:21;;;;;;;2.78;1.20;;;;;;;12.55;25.96;98035.06;5073624;28;20348;-70
2021/11/22 06:32:47;;;;;;;1.40;1.15;;;;;;;12.79;26.26;98048.50;5091384;28;20093;-73
2021/11/22 06:35:13;;;;;;;1.53;1.20;;;;;;;12.79;25.60;98053.03;5090912;28;20051;-72
2021/11/22 06:37:39;;;;;;;1.20;1.10;;;;;;;12.94;25.41;98057.09;5073119;28;20040;-72
2021/11/22 06:40:07;;;;;;;2.03;0.90;;;;;;;13.15;25.43;98063.97;5091412;28;20131;-72
2021/11/22 06:42:34;;;;;;;1.15;1.05;;;;;;;12.85;25.67;98074.34;5089803;28;20138;-71
2021/11/22 06:45:00;;;;;;;2.13;1.20;;;;;;;12.71;25.96;98078.06;5056151;28;20054;-73
2021/11/22 06:47:26;;;;;;;2.67;0.90;;;;;;;12.42;25.50;98080.38;5072820;28;20040;-73
2021/11/22 06:49:52;;;;;;;1.58;0.95;;;;;;;12.68;25.45;98081.16;5072230;28;20059;-73
2021/11/22 06:52:20;;;;;;;2.00;1.20;;;;;;;12.44;25.61;98095.09;5073553;28;20626;-74
2021/11/22 06:54:47;;;;;;;1.20;1.10;;;;;;;12.43;25.54;98076.69;5091235;28;20040;-74
2021/11/22 06:57:14;;;;;;;3.03;1.30;;;;;;;12.21;24.82;98065.44;5072698;28;20051;-75
2021/11/22 06:59:42;;;;;;;2.58;1.05;;;;;;;13.26;24.32;98112.13;5055634;28;20054;-72
2021/11/22 07:02:15;;;;;;;2.45;1.27;;;;;;;13.59;23.50;98131.44;5067053;28;20085;-74
2021/11/22 07:04:42;;;;;;;2.55;1.10;;;;;;;13.77;22.44;98143.25;5073699;28;20048;-69
2021/11/22 07:07:08;;;;;;;1.00;0.90;;;;;;;13.29;21.52;98146.38;5067429;28;20098;-74
2021/11/22 07:09:34;;;;;;;0.90;0.90;;;;;;;13.33;20.86;98163.56;5022403;28;20060;-71
2021/11/22 07:12:05;;;;;;;0.80;0.80;;;;;;;15.05;19.26;98144.25;5050558;28;20048;-73
2021/11/22 07:14:32;;;;;;;1.05;0.90;;;;;;;15.67;18.37;98168.00;5055021;28;20064;-73
2021/11/22 07:16:58;;;;;;;2.25;0.70;;;;;;;15.65;18.30;98182.66;5069632;28;20071;-74
2021/11/22 07:19:25;;;;;;;0.70;0.70;;;;;;;16.62;17.44;98181.25;5072411;28;20044;-74
2021/11/22 07:21:52;;;;;;;0.95;0.82;;;;;;;16.88;17.36;98199.56;5054580;28;20035;-74
2021/11/22 07:24:19;;;;;;;0.82;0.80;;;;;;;17.02;17.05;98191.31;5089813;28;20256;-72
2021/11/22 07:26:45;;;;;;;0.73;0.73;;;;;;;16.27;17.03;98183.03;5089999;28;20036;-75
2021/11/22 07:29:11;;;;;;;0.85;0.85;;;;;;;16.77;17.15;98202.25;5070038;28;20039;-74
2021/11/22 07:31:37;;;;;;;1.10;1.00;;;;;;;17.85;16.68;98219.44;5054722;28;20036;-73
2021/11/22 07:34:03;;;;;;;4.18;0.90;;;;;;;20.58;14.73;98221.34;5071788;28;20051;-67
2021/11/22 07:36:29;;;;;;;0.82;0.82;;;;;;;23.25;12.11;98214.94;5090616;28;20039;-74
2021/11/22 07:38:54;;;;;;;2.50;1.00;;;;;;;25.10;10.75;98222.41;5055563;28;20369;-75
2021/11/22 07:41:20;;;;;;;1.88;0.70;;;;;;;26.52;9.28;98156.75;5054753;28;20130;-74
2021/11/22 07:43:47;;;;;;;1.45;1.00;;;;;;;28.11;8.77;98237.88;5088298;28;20517;-74
2021/11/22 07:46:12;;;;;;;1.13;0.90;;;;;;;28.86;7.99;98247.16;5089233;28;20036;-75
2021/11/22 07:48:38;;;;;;;4.32;0.82;;;;;;;26.97;8.94;98234.25;5055100;28;20121;-74
2021/11/22 07:51:04;;;;;;;4.15;0.90;;;;;;;24.33;10.65;98247.63;5054949;28;20088;-72
2021/11/22 07:53:31;;;;;;;2.65;1.00;;;;;;;23.27;11.25;98250.69;5054787;28;20159;-74
2021/11/22 07:55:57;;;;;;;3.30;1.00;;;;;;;22.45;11.64;98241.13;5054637;28;20047;-75
2021/11/22 07:58:23;;;;;;;1.95;0.80;;;;;;;22.64;11.51;98247.66;5089133;28;20040;-74
2021/11/22 08:00:49;;;;;;;1.98;0.93;;;;;;;21.02;12.49;98255.25;5070968;28;20096;-75
2021/11/22 08:03:15;;;;;;;3.00;1.00;;;;;;;20.28;13.08;98253.44;5081562;28;20047;-75
2021/11/22 08:05:42;;;;;;;2.40;1.00;;;;;;;22.13;12.13;98262.09;5086279;28;20044;-74
2021/11/22 08:08:08;;;;;;;1.10;1.00;;;;;;;24.29;10.79;98266.41;5038935;28;20032;-75
2021/11/22 08:10:36;;;;;;;1.48;0.85;;;;;;;24.76;9.68;98288.41;5071104;28;20044;-74
2021/11/22 08:13:08;;;;;;;0.80;0.80;;;;;;;25.22;9.78;98280.72;5054582;28;20040;-70
2021/11/22 08:15:35;;;;;;;3.42;1.30;;;;;;;24.16;10.01;98287.88;5054584;28;20059;-74
2021/11/22 08:18:04;;;;;;;4.18;0.90;;;;;;;22.93;11.04;98279.38;5055628;28;20047;-75
2021/11/22 08:20:30;;;;;;;1.02;0.88;;;;;;;20.99;12.07;98274.63;5090301;28;20461;-75
2021/11/22 08:22:56;;;;;;;4.78;0.93;;;;;;;19.34;13.58;98255.41;5088946;28;20408;-73
2021/11/22 08:25:24;;;;;;;2.55;1.02;;;;;;;18.53;14.26;98279.34;5072245;28;20075;-73
2021/11/22 08:27:53;;;;;;;2.00;1.23;;;;;;;17.58;15.30;98293.47;5072347;28;20093;-75
2021/11/22 08:30:21;;;;;;;2.28;1.10;;;;;;;16.90;15.84;98273.63;5053846;28;20035;-76
2021/11/22 08:32:48;;;;;;;2.92;1.40;;;;;;;16.32;16.62;98294.84;5088338;28;20043;-74
2021/11/22 08:35:15;;;;;;;3.53;1.20;;;;;;;15.81;16.94;98303.31;5037530;28;20435;-75
2021/11/22 08:37:41;;;;;;;3.28;1.30;;;;;;;15.68;17.30;98294.63;5088978;28;20453;-72
2021/11/22 08:40:10;;;;;;;3.40;1.40;;;;;;;15.73;17.23;98302.81;5025611;28;20048;-73
2021/11/22 08:42:36;;;;;;;2.83;1.30;;;;;;;15.50;17.56;98305.34;5067904;28;20082;-75
2021/11/22 08:45:02;;;;;;;2.25;1.02;;;;;;;17.14;16.35;98278.78;5054219;28;20570;-74
2021/11/22 08:47:29;;;;;;;2.25;1.20;;;;;;;17.44;15.50;98308.19;5071890;28;20132;-75
2021/11/22 08:49:55;;;;;;;1.83;1.20;;;;;;;17.38;15.94;98311.78;5071149;28;20134;-75
2021/11/22 08:52:22;;;;;;;6.57;1.33;;;;;;;17.01;16.03;98324.59;5070846;28;20048;-74
2021/11/22 08:54:48;;;;;;;2.22;1.30;;;;;;;16.36;16.68;98325.53;5070825;28;20047;-75
2021/11/22 08:57:14;;;;;;;2.50;1.30;;;;;;;15.74;17.02;98299.91;5039154;28;20051;-74
2021/11/22 08:59:41;;;;;;;3.47;1.35;;;;;;;15.55;17.04;98327.69;5074700;28;20048;-72
2021/11/22 09:02:07;;;;;;;3.00;1.33;;;;;;;15.55;17.14;98317.00;5074783;28;20048;-73
2021/11/22 09:04:33;;;;;;;1.75;1.00;;;;;;;14.80;17.25;98322.56;5074044;28;20039;-72
2021/11/22 09:06:59;;;;;;;2.92;1.60;;;;;;;14.68;17.64;98329.63;5092818;28;20044;-74
2021/11/22 09:09:25;;;;;;;1.15;0.93;;;;;;;14.60;17.68;98348.59;5074660;28;20076;-75
2021/11/22 09:11:51;;;;;;;4.70;1.10;;;;;;;14.08;18.05;98344.31;5057662;28;20044;-75
2021/11/22 09:14:17;;;;;;;0.82;0.82;;;;;;;13.60;18.14;98356.34;5091602;28;20044;-74
2021/11/22 09:16:42;;;;;;;2.40;1.10;;;;;;;13.32;18.61;98353.91;5092489;28;20056;-71
2021/11/22 09:19:08;;;;;;;1.05;1.00;;;;;;;12.92;18.80;98336.25;5074286;28;20084;-75
2021/11/22 09:21:35;;;;;;;3.00;0.95;;;;;;;12.99;18.89;98353.06;5040919;28;20047;-75
2021/11/22 09:24:03;;;;;;;1.65;0.90;;;;;;;12.99;19.12;98360.25;5074076;28;20771;-75
2021/11/22 09:26:29;;;;;;;1.75;0.85;;;;;;;12.69;19.22;98343.81;5074016;28;20043;-74
2021/11/22 09:28:55;;;;;;;1.10;1.00;;;;;;;12.83;19.11;98374.78;5092492;28;20100;-74
2021/11/22 09:31:21;;;;;;;1.00;1.00;;;;;;;12.88;19.11;98382.16;5074525;28;20035;-75
2021/11/22 09:33:50;;;;;;;2.78;1.08;;;;;;;12.64;19.64;98386.22;5091937;28;20039;-75
2021/11/22 09:36:16;;;;;;;2.17;1.10;;;;;;;12.76;19.52;98383.78;5091370;28;20045;-75
2021/11/22 09:38:42;;;;;;;1.42;0.90;;;;;;;12.23;19.69;98368.66;5073660;28;20108;-73
2021/11/22 09:41:09;;;;;;;2.00;1.30;;;;;;;12.74;19.80;98391.16;5057033;28;20559;-72
2021/11/22 09:43:35;;;;;;;1.02;0.98;;;;;;;12.48;20.02;98388.41;5057174;28;20055;-75
2021/11/22 09:46:01;;;;;;;1.67;0.90;;;;;;;12.32;20.06;98392.25;5056412;28;20510;-73
2021/11/22 09:48:27;;;;;;;1.83;1.20;;;;;;;12.18;20.23;98403.88;5057416;28;20075;-74
2021/11/22 09:50:53;;;;;;;1.03;0.90;;;;;;;11.99;20.33;98375.34;5057162;28;20064;-74
2021/11/22 09:53:20;;;;;;;4.03;0.93;;;;;;;12.31;20.43;98403.09;5091184;28;20586;-74
2021/11/22 09:55:46;;;;;;;2.53;1.30;;;;;;;12.08;20.82;98411.41;5072850;28;20138;-72
2021/11/22 09:58:12;;;;;;;1.40;1.03;;;;;;;12.34;20.74;98424.84;5091125;28;20134;-69
2021/11/22 10:00:44;;;;;;;2.63;1.20;;;;;;;12.63;19.89;98432.50;5089906;28;20036;-71
2021/11/22 10:03:16;;;;;;;1.90;0.97;;;;;;;12.78;19.55;98441.16;5091687;28;20058;-73
2021/11/22 10:05:42;;;;;;;2.65;0.80;;;;;;;12.55;19.25;98451.34;5073334;28;20096;-72
2021/11/22 10:08:13;;;;;;;1.23;1.10;;;;;;;12.98;19.12;98443.88;5070787;28;20516;-74
2021/11/22 10:10:42;;;;;;;2.45;1.00;;;;;;;14.04;18.52;98433.03;5090092;28;20055;-73
2021/11/22 10:13:32;;;;;;;1.85;0.90;;;;;;;15.45;17.47;98445.13;5091224;28;20105;-72
2021/11/22 10:16:21;;;;;;;1.10;0.95;;;;;;;17.29;16.07;98450.88;5073297;28;20052;-74
2021/11/22 10:18:59;;;;;;;3.17;0.98;;;;;;;18.84;14.19;98469.00;5037975;28;20456;-74
2021/11/22 10:21:36;;;;;;;3.95;1.88;;;;;;;18.84;13.67;98463.59;5053147;28;20040;-73
2021/11/22 10:24:05;;;;;;;1.42;0.80;;;;;;;19.33;13.39;98466.47;5055323;28;20085;-77
2021/11/22 10:26:48;;;;;;;4.60;1.17;;;;;;;18.90;12.99;98452.72;5091052;28;20058;-72
2021/11/22 10:29:31;;;;;;;1.38;1.00;;;;;;;17.94;13.71;98465.13;5073122;28;20046;-74
2021/11/22 10:32:03;;;;;;;3.67;1.17;;;;;;;17.25;14.57;98473.81;5091352;28;20044;-75
2021/11/22 10:34:35;;;;;;;1.60;1.15;;;;;;;16.81;15.29;98463.50;5068007;28;20408;-74
2021/11/22 10:37:04;;;;;;;2.97;1.40;;;;;;;16.36;15.74;98473.69;5090523;28;20048;-73
2021/11/22 10:39:31;;;;;;;5.07;1.17;;;;;;;15.56;15.83;98476.50;5072956;28;20043;-74
2021/11/22 10:41:57;;;;;;;1.35;1.20;;;;;;;15.18;16.49;98479.22;5039042;28;20031;-74
2021/11/22 10:44:28;;;;;;;5.38;1.40;;;;;;;14.88;16.97;98478.13;5072388;28;20566;-73
2021/11/22 10:46:57;;;;;;;1.33;1.10;;;;;;;13.78;17.57;98479.25;5055652;28;20483;-73
2021/11/22 10:52:35;;;;;;;3.13;1.48;;;;;;;13.39;18.11;98487.25;5090343;28;20051;-74
2021/11/22 10:55:06;;;;;;;3.58;1.30;;;;;;;14.07;17.82;98486.00;5069459;28;20044;-73
2021/11/22 10:57:36;;;;;;;1.00;0.88;;;;;;;14.51;16.75;98508.34;5072839;28;20161;-69
2021/11/22 11:00:17;;;;;;;2.13;1.00;;;;;;;14.93;16.79;98512.25;5072468;28;20071;-73
2021/11/22 11:02:43;;;;;;;5.28;1.00;;;;;;;14.25;17.13;98518.25;5072376;28;20621;-69
2021/11/22 11:05:10;;;;;;;1.92;1.17;;;;;;;14.11;17.16;98508.59;5090626;28;20221;-73
2021/11/22 11:07:37;;;;;;;5.95;1.30;;;;;;;14.00;17.14;98525.22;5022503;28;20499;-74
2021/11/22 11:10:04;;;;;;;2.58;1.50;;;;;;;15.02;16.56;98501.09;5071989;28;20040;-69
2021/11/22 11:12:30;;;;;;;2.83;1.55;;;;;;;14.74;16.01;98524.69;5072019;28;20043;-72
2021/11/22 11:14:58;;;;;;;9.52;4.85;;;;;;;16.16;15.46;98533.91;5070888;28;20483;-74
2021/11/22 11:17:31;;;;;;;1.52;1.17;;;;;;;16.49;14.93;98535.25;5066742;28;20043;-75
2021/11/22 11:20:00;;;;;;;5.05;1.25;;;;;;;16.33;15.32;98538.44;5090015;28;20646;-76
2021/11/22 11:22:28;;;;;;;2.40;1.25;;;;;;;17.77;14.20;98524.09;5089983;28;20040;-74
2021/11/22 11:24:59;;;;;;;4.90;1.05;;;;;;;18.45;13.60;98559.34;5089514;28;20040;-73
2021/11/22 11:27:25;;;;;;;2.70;1.05;;;;;;;19.22;12.74;98539.19;5071946;28;20130;-73
2021/11/22 11:29:51;;;;;;;1.85;1.10;;;;;;;20.11;12.34;98561.59;5087745;28;20567;-73
2021/11/22 11:32:18;;;;;;;4.47;1.20;;;;;;;20.56;11.71;98553.41;5090584;28;20111;-74
2021/11/22 11:34:48;;;;;;;2.47;0.90;;;;;;;20.98;11.42;98559.97;5072326;28;20036;-71
2021/11/22 11:37:24;;;;;;;3.53;1.00;;;;;;;21.21;11.32;98569.69;5089426;28;20495;-76